Time;durP1;ratioP1;P1;durP2;ratioP2;P2;SDS_P1;SDS_P2;PMS_P1;PMS_P2;Temp;Humidity;BMP_temperature;BMP_pressure;BME280_temperature;BME280_humidity;BME280_pressure;Samples;Min_cycle;Max_cycle;Signal;HPM_P1;HPM_P2
2021/10/25 14:21:21;;;;;;;23.47;9.63;;;;;;;9.44;38.23;144576.56;1820178;77;26696;-56
2021/10/25 14:23:57;;;;;;;24.27;10.25;;;;;;;9.32;38.67;144547.77;1818615;77;20280;-58
2021/10/25 14:26:52;;;;;;;20.95;11.25;;;;;;;9.25;38.91;144531.47;1816581;77;22655;-59
2021/10/25 14:29:29;;;;;;;22.00;11.80;;;;;;;9.20;39.12;144518.94;1832703;77;22231;-58
2021/10/25 14:32:24;;;;;;;28.92;17.42;;;;;;;9.16;39.36;144508.94;1819614;77;22608;-57
2021/10/25 14:35:26;;;;;;;21.10;12.33;;;;;;;9.10;39.62;144493.88;1819514;77;22232;-59
2021/10/25 14:38:11;;;;;;;25.80;12.30;;;;;;;8.99;39.94;144467.58;1811987;77;22689;-59
2021/10/25 14:40:52;;;;;;;25.95;11.97;;;;;;;8.85;40.18;144433.78;1834748;77;22157;-58
2021/10/25 14:43:29;;;;;;;22.48;11.08;;;;;;;8.75;40.48;144408.73;1819066;77;22626;-56
2021/10/25 14:54:22;;;;;;;27.20;17.85;;;;;;;8.26;41.46;144288.45;1826439;77;22168;-58
2021/10/25 14:56:58;;;;;;;33.30;18.60;;;;;;;8.14;41.63;144259.69;1812286;77;22187;-58
2021/10/25 14:59:32;;;;;;;29.40;14.58;;;;;;;8.01;41.93;144228.41;1834881;77;22167;-61
2021/10/25 15:02:34;;;;;;;28.55;14.28;;;;;;;7.89;42.13;144198.36;1830996;77;22610;-56
2021/10/25 15:05:12;;;;;;;30.62;14.58;;;;;;;7.77;42.41;144168.31;1834925;77;22124;-59
2021/10/25 15:08:06;;;;;;;38.17;15.72;;;;;;;7.67;42.70;144143.28;1834967;77;22128;-60
2021/10/25 15:10:41;;;;;;;33.25;18.40;;;;;;;7.55;42.95;144115.73;1853369;77;22123;-59
2021/10/25 15:13:41;;;;;;;40.98;18.73;;;;;;;7.47;43.19;144094.48;1834158;77;22184;-56
2021/10/25 15:16:41;;;;;;;30.37;16.25;;;;;;;7.37;43.57;144071.95;1834013;77;22631;-58
2021/10/25 15:19:41;;;;;;;30.92;16.35;;;;;;;7.25;43.75;144041.97;1834108;77;22606;-57
2021/10/25 15:22:37;;;;;;;30.52;15.53;;;;;;;7.16;44.10;144020.67;1834870;77;22152;-59
2021/10/25 15:25:39;;;;;;;35.40;16.35;;;;;;;7.11;44.10;144006.92;1834823;77;22157;-57
2021/10/25 15:28:34;;;;;;;38.30;14.90;;;;;;;7.05;44.37;143993.19;1834706;77;22197;-56
2021/10/25 15:31:09;;;;;;;28.73;15.40;;;;;;;7.00;44.46;143980.67;1834811;77;22161;-57
2021/10/25 15:34:03;;;;;;;40.20;17.05;;;;;;;6.96;44.60;143970.66;1834818;77;22136;-58
2021/10/25 15:36:38;;;;;;;39.63;16.97;;;;;;;6.91;44.87;143959.39;1834910;77;22164;-58
2021/10/25 15:39:13;;;;;;;33.48;19.27;;;;;;;6.88;46.43;143950.66;1819369;77;28047;-57
2021/10/25 15:41:48;;;;;;;35.92;17.85;;;;;;;6.90;47.01;143956.91;1834884;77;22157;-56
2021/10/25 15:44:44;;;;;;;33.90;15.90;;;;;;;6.86;47.21;143945.64;1853398;77;22131;-62
2021/10/25 15:47:37;;;;;;;29.63;15.10;;;;;;;6.80;47.58;143930.66;1834903;77;22554;-57
2021/10/25 15:50:13;;;;;;;44.23;17.30;;;;;;;6.72;47.74;143913.16;1834777;77;22716;-60
2021/10/25 15:52:48;;;;;;;40.78;19.32;;;;;;;6.66;47.81;143898.13;1853315;77;22175;-57
2021/10/25 15:55:23;;;;;;;43.65;19.25;;;;;;;6.62;47.84;143888.14;1853428;77;22171;-60
2021/10/25 15:57:59;;;;;;;39.20;18.57;;;;;;;6.59;47.96;143879.36;1819161;77;28015;-59
2021/10/25 16:00:52;;;;;;;31.90;15.68;;;;;;;6.60;48.11;143883.13;1834668;77;22164;-58
2021/10/25 16:03:27;;;;;;;29.20;14.95;;;;;;;6.56;48.20;143871.88;1853417;77;22159;-58
2021/10/25 16:06:03;;;;;;;33.18;14.38;;;;;;;6.51;48.08;143860.61;1834834;77;22129;-56
2021/10/25 16:08:37;;;;;;;32.17;16.17;;;;;;;6.49;48.30;143855.66;1812435;77;28238;-59
2021/10/25 16:11:31;;;;;;;36.28;15.58;;;;;;;6.49;48.39;143855.66;1820301;77;22144;-59
2021/10/25 16:14:13;;;;;;;36.00;15.05;;;;;;;6.42;48.51;143838.14;1824855;77;22247;-57
2021/10/25 16:16:48;;;;;;;33.88;16.67;;;;;;;6.34;48.81;143819.39;1800716;77;28023;-56
2021/10/25 16:19:47;;;;;;;35.50;16.62;;;;;;;6.33;49.09;143815.62;1820151;77;22597;-56
2021/10/25 16:22:20;;;;;;;34.45;16.57;;;;;;;6.23;49.35;143791.88;1825941;77;22633;-56
2021/10/25 16:25:19;;;;;;;42.00;19.50;;;;;;;6.15;49.46;143773.13;1834447;77;22625;-57
2021/10/25 16:27:54;;;;;;;43.15;19.02;;;;;;;6.08;49.62;143755.62;1829804;77;22590;-63
2021/10/25 16:30:29;;;;;;;47.25;18.95;;;;;;;6.03;49.71;143743.13;1817225;77;22147;-58
2021/10/25 16:33:27;;;;;;;51.63;19.35;;;;;;;5.97;49.86;143728.16;1815924;77;22613;-57
2021/10/25 16:36:10;;;;;;;48.40;21.12;;;;;;;5.91;50.25;143713.13;1819580;77;22200;-56
2021/10/25 16:39:08;;;;;;;56.65;21.15;;;;;;;5.86;50.37;143703.13;1820701;77;22571;-58
2021/10/25 16:42:05;;;;;;;43.63;18.35;;;;;;;5.82;50.50;143691.87;1817477;77;22191;-57
2021/10/25 16:44:38;;;;;;;49.53;20.12;;;;;;;5.79;50.57;143685.63;1817806;77;23359;-59
2021/10/25 16:47:37;;;;;;;47.83;18.23;;;;;;;5.74;50.78;143673.13;1818582;77;22172;-58
2021/10/25 16:50:32;;;;;;;46.90;17.90;;;;;;;5.70;50.89;143661.87;1818170;77;22229;-57
2021/10/25 17:04:55;;;;;;;34.43;14.58;;;;;;;5.58;50.48;143633.17;1814985;77;22196;-57
2021/10/25 17:10:31;;;;;;;34.38;15.23;;;;;;;5.59;50.54;143635.66;1824577;77;22613;-59
2021/10/25 17:13:12;;;;;;;33.40;13.98;;;;;;;5.56;50.65;143628.17;1834050;77;22187;-59
2021/10/25 17:15:47;;;;;;;41.88;14.10;;;;;;;5.52;50.58;143619.44;1853341;77;22211;-59
2021/10/25 17:18:24;;;;;;;44.53;15.83;;;;;;;5.50;50.75;143613.20;1834873;77;22584;-58
2021/10/25 17:21:15;;;;;;;33.13;14.63;;;;;;;5.46;50.99;143603.19;1823338;77;22163;-57
2021/10/25 17:24:01;;;;;;;59.88;17.15;;;;;;;5.44;50.90;143599.42;1833279;77;22171;-57
2021/10/25 17:26:40;;;;;;;37.55;16.82;;;;;;;5.40;50.83;143590.70;1807074;77;38614;-58
2021/10/25 17:29:15;;;;;;;35.03;15.13;;;;;;;5.43;50.71;143596.95;1843270;77;22160;-57
2021/10/25 17:31:51;;;;;;;33.55;15.08;;;;;;;5.39;50.61;143588.22;1853491;77;22186;-57
2021/10/25 17:34:27;;;;;;;31.85;14.80;;;;;;;5.38;50.67;143585.70;1834887;77;22179;-56
2021/10/25 17:37:21;;;;;;;38.48;15.28;;;;;;;5.39;50.52;143586.94;1853472;77;22159;-56
2021/10/25 17:39:57;;;;;;;36.50;16.52;;;;;;;5.37;50.66;143583.22;1819395;77;28086;-56
2021/10/25 17:42:58;;;;;;;38.25;16.23;;;;;;;5.39;50.69;143586.94;1853377;77;22187;-58
2021/10/25 17:45:33;;;;;;;33.98;14.23;;;;;;;5.36;50.84;143579.45;1834893;77;22213;-59
2021/10/25 17:48:09;;;;;;;31.30;14.47;;;;;;;5.32;50.97;143569.50;1834846;77;22179;-58
2021/10/25 17:50:45;;;;;;;35.38;12.75;;;;;;;5.30;51.09;143565.72;1834976;77;20210;-57
2021/10/25 17:53:24;;;;;;;33.18;13.68;;;;;;;5.30;51.14;143564.48;1834995;77;22567;-60
2021/10/25 17:55:59;;;;;;;34.60;14.33;;;;;;;5.29;51.27;143563.25;1843375;77;22582;-57
2021/10/25 17:58:36;;;;;;;34.50;15.20;;;;;;;5.27;51.32;143558.25;1819249;77;28402;-57
2021/10/25 18:01:31;;;;;;;27.00;12.50;;;;;;;5.30;51.35;143565.72;1834909;77;22210;-57
2021/10/25 18:04:31;;;;;;;36.95;14.55;;;;;;;5.29;51.14;143563.25;1834103;77;22606;-55
2021/10/25 18:07:17;;;;;;;34.83;13.62;;;;;;;5.27;51.25;143558.25;1853528;77;22156;-59
2021/10/25 18:09:52;;;;;;;34.25;13.90;;;;;;;5.25;51.17;143553.25;1834916;77;22160;-58
2021/10/25 18:12:27;;;;;;;31.75;13.70;;;;;;;5.22;51.14;143545.77;1819308;77;28082;-55
2021/10/25 18:15:22;;;;;;;29.98;12.88;;;;;;;5.27;50.96;143557.00;1853404;77;22180;-57
2021/10/25 18:17:57;;;;;;;28.55;11.90;;;;;;;5.24;50.89;143550.77;1853482;77;22557;-57
2021/10/25 18:20:34;;;;;;;27.93;12.80;;;;;;;5.22;50.86;143545.77;1834912;77;22156;-57
2021/10/25 18:23:29;;;;;;;27.90;11.85;;;;;;;5.21;50.89;143543.23;1853604;77;22181;-57
2021/10/25 18:26:22;;;;;;;23.47;10.53;;;;;;;5.16;50.97;143531.98;1834907;77;22575;-60
2021/10/25 18:28:57;;;;;;;28.30;11.25;;;;;;;5.14;51.01;143525.75;1834924;77;22160;-55
2021/10/25 18:31:39;;;;;;;23.80;10.58;;;;;;;5.14;50.97;143525.75;1834041;77;22140;-57
2021/10/25 18:34:36;;;;;;;26.12;10.82;;;;;;;5.16;50.91;143530.75;1835050;77;22164;-56
2021/10/25 18:37:36;;;;;;;23.57;10.13;;;;;;;5.16;50.96;143530.75;1853470;77;22136;-58
2021/10/25 18:40:17;;;;;;;29.12;11.63;;;;;;;5.13;51.04;143523.27;1853475;77;22216;-56
2021/10/25 18:42:53;;;;;;;26.17;12.65;;;;;;;5.09;51.16;143514.55;1819362;77;28009;-59
2021/10/25 18:45:30;;;;;;;28.15;11.97;;;;;;;5.10;51.34;143515.78;1834799;77;22160;-57
2021/10/25 18:48:08;;;;;;;25.05;12.18;;;;;;;5.06;51.43;143505.78;1835034;77;22140;-57
2021/10/25 18:50:41;;;;;;;26.73;11.75;;;;;;;5.03;51.62;143499.53;1853430;77;20135;-58
2021/10/25 18:53:16;;;;;;;21.42;11.03;;;;;;;4.99;51.71;143489.58;1835735;77;22160;-56
2021/10/25 18:55:51;;;;;;;26.60;11.38;;;;;;;4.97;51.85;143484.58;1818472;77;22168;-55
2021/10/25 18:58:27;;;;;;;27.62;12.03;;;;;;;4.93;52.11;143475.81;1821180;77;22609;-57
2021/10/25 19:01:02;;;;;;;26.33;12.63;;;;;;;4.90;52.28;143468.33;1822182;77;22690;-57
2021/10/25 19:03:38;;;;;;;26.37;12.37;;;;;;;4.87;52.47;143460.84;1818180;77;22599;-59
2021/10/25 19:06:19;;;;;;;31.48;14.55;;;;;;;4.81;52.71;143445.87;1834880;77;22199;-58
2021/10/25 19:09:13;;;;;;;32.00;13.75;;;;;;;4.78;52.86;143438.36;1827592;77;22175;-57
2021/10/25 19:11:47;;;;;;;25.90;12.88;;;;;;;4.76;53.09;143433.41;1817533;77;22578;-55
2021/10/25 19:14:24;;;;;;;33.18;14.05;;;;;;;4.74;53.29;143429.64;1817765;77;22605;-56
2021/10/25 19:17:18;;;;;;;29.10;15.53;;;;;;;4.73;53.45;143425.88;1802317;77;28134;-57
2021/10/25 19:19:57;;;;;;;29.75;12.90;;;;;;;4.74;53.51;143428.41;1827664;77;22147;-58
2021/10/25 19:22:29;;;;;;;28.35;12.82;;;;;;;4.73;53.57;143425.88;1818626;77;22148;-56
2021/10/25 19:25:07;;;;;;;24.02;13.38;;;;;;;4.71;53.74;143420.92;1817698;77;22156;-57
2021/10/25 19:27:42;;;;;;;24.57;12.07;;;;;;;4.69;53.84;143415.92;1819283;77;22594;-58
2021/10/25 19:30:18;;;;;;;27.32;13.35;;;;;;;4.67;53.97;143410.92;1818575;77;22199;-55
2021/10/25 19:32:55;;;;;;;25.17;12.45;;;;;;;4.64;54.09;143403.44;1816569;77;22152;-55
2021/10/25 19:35:37;;;;;;;31.23;12.28;;;;;;;4.63;54.25;143400.91;1815221;77;22222;-57
2021/10/25 19:38:12;;;;;;;24.37;11.48;;;;;;;4.63;54.29;143400.91;1825464;77;22234;-59
2021/10/25 19:40:47;;;;;;;25.55;12.85;;;;;;;4.62;54.33;143399.69;1814857;77;38350;-55
2021/10/25 19:43:22;;;;;;;32.20;12.18;;;;;;;4.63;54.30;143402.20;1853453;77;22187;-58
2021/10/25 19:45:57;;;;;;;24.87;13.35;;;;;;;4.63;54.33;143400.91;1834595;77;22161;-58
2021/10/25 19:48:34;;;;;;;23.70;11.38;;;;;;;4.60;54.40;143393.44;1851915;77;22160;-58
2021/10/25 19:51:09;;;;;;;22.90;10.90;;;;;;;4.59;54.47;143390.97;1853026;77;22144;-57
2021/10/25 19:53:51;;;;;;;20.27;10.18;;;;;;;4.61;54.49;143395.97;1853491;77;22179;-57
2021/10/25 19:56:31;;;;;;;24.60;10.50;;;;;;;4.60;54.45;143393.44;1853233;77;22216;-55
2021/10/25 19:59:31;;;;;;;20.37;10.50;;;;;;;4.58;54.34;143389.72;1834071;77;22585;-58
2021/10/25 20:02:06;;;;;;;23.95;10.05;;;;;;;4.57;54.28;143388.44;1853535;77;22228;-56
2021/10/25 20:04:47;;;;;;;17.42;9.10;;;;;;;4.59;54.24;143392.20;1832929;77;22254;-56
2021/10/25 20:07:23;;;;;;;20.68;9.80;;;;;;;4.59;54.08;143390.97;1814675;79;22595;-60
2021/10/25 20:10:01;;;;;;;30.88;10.55;;;;;;;4.58;54.06;143389.72;1834358;77;22152;-56
2021/10/25 20:12:41;;;;;;;22.70;11.50;;;;;;;4.57;54.12;143388.44;1834981;77;20210;-60
2021/10/25 20:15:18;;;;;;;22.40;10.78;;;;;;;4.59;54.10;143390.97;1853505;77;22155;-57
2021/10/25 20:17:53;;;;;;;21.97;9.98;;;;;;;4.54;54.13;143380.95;1835061;77;22128;-58
2021/10/25 20:20:29;;;;;;;25.85;12.98;;;;;;;4.49;54.37;143368.48;1837778;77;28430;-57
2021/10/25 20:23:03;;;;;;;26.70;12.03;;;;;;;4.52;54.35;143374.72;1853533;77;22136;-58
2021/10/25 20:25:57;;;;;;;24.10;10.70;;;;;;;4.49;54.49;143368.48;1853535;77;22135;-58
2021/10/25 20:28:51;;;;;;;20.45;10.30;;;;;;;4.46;54.62;143359.77;1834908;77;22157;-57
2021/10/25 20:31:26;;;;;;;22.42;11.08;;;;;;;4.44;54.69;143356.00;1853489;77;22135;-60
2021/10/25 20:34:01;;;;;;;22.87;11.68;;;;;;;4.40;54.82;143346.05;1835072;77;22129;-57
2021/10/25 20:36:36;;;;;;;24.50;10.78;;;;;;;4.40;54.83;143344.77;1853520;77;22131;-56
2021/10/25 20:39:30;;;;;;;24.07;10.70;;;;;;;4.38;54.84;143339.81;1834972;77;22129;-56
2021/10/25 20:42:24;;;;;;;18.92;10.80;;;;;;;4.34;55.01;143332.28;1834901;77;22132;-59
2021/10/25 20:44:59;;;;;;;23.02;11.73;;;;;;;4.31;55.15;143323.58;1834949;77;22132;-57
2021/10/25 20:47:34;;;;;;;20.75;10.93;;;;;;;4.28;55.28;143317.33;1834959;77;22136;-56
2021/10/25 20:50:10;;;;;;;23.98;13.28;;;;;;;4.26;55.44;143311.09;1837710;77;28119;-56
2021/10/25 20:52:45;;;;;;;24.00;11.88;;;;;;;4.28;55.43;143316.09;1834958;77;22237;-58
2021/10/25 20:55:26;;;;;;;23.95;13.55;;;;;;;4.23;55.56;143303.63;1834097;77;22160;-57
2021/10/25 20:58:20;;;;;;;25.57;12.37;;;;;;;4.20;55.77;143296.09;1834967;77;22125;-57
2021/10/25 21:00:55;;;;;;;25.45;13.53;;;;;;;4.16;55.84;143286.14;1837944;77;38347;-61
2021/10/25 21:03:30;;;;;;;24.43;11.75;;;;;;;4.19;55.88;143293.62;1834950;77;22546;-56
2021/10/25 21:06:30;;;;;;;24.60;11.45;;;;;;;4.14;55.99;143283.62;1834084;77;22586;-59
2021/10/25 21:09:05;;;;;;;23.02;12.35;;;;;;;4.11;56.08;143276.14;1853496;77;22156;-56
2021/10/25 21:11:40;;;;;;;31.77;12.10;;;;;;;4.08;56.18;143268.67;1834949;77;22140;-56
2021/10/25 21:14:16;;;;;;;25.48;13.98;;;;;;;4.04;56.32;143258.67;1819372;77;28458;-58
2021/10/25 21:16:52;;;;;;;25.40;12.73;;;;;;;4.07;56.24;143266.19;1853546;77;20209;-56
2021/10/25 21:19:45;;;;;;;21.12;11.73;;;;;;;4.05;56.20;143261.19;1834934;77;22140;-57
2021/10/25 21:22:39;;;;;;;22.60;11.33;;;;;;;4.03;56.36;143254.95;1834877;77;22132;-57
2021/10/25 21:25:14;;;;;;;21.97;12.33;;;;;;;3.99;56.33;143246.20;1843366;77;22140;-58
2021/10/25 21:27:49;;;;;;;25.70;11.57;;;;;;;3.99;56.32;143246.20;1834949;77;22132;-57
2021/10/25 21:30:43;;;;;;;26.85;12.47;;;;;;;3.97;56.28;143241.25;1834880;77;22136;-57
2021/10/25 21:33:18;;;;;;;26.55;12.35;;;;;;;3.95;56.38;143236.25;1834950;77;22136;-54
2021/10/25 21:35:53;;;;;;;23.30;12.73;;;;;;;3.92;56.45;143228.78;1853553;77;22184;-55
2021/10/25 21:38:28;;;;;;;26.82;13.22;;;;;;;3.88;56.48;143220.02;1835041;77;22136;-59
2021/10/25 21:41:06;;;;;;;21.20;12.15;;;;;;;3.87;56.53;143216.31;1853488;77;22538;-55
2021/10/25 21:43:40;;;;;;;29.40;14.03;;;;;;;3.86;56.57;143213.78;1835121;77;22136;-56
2021/10/25 21:46:17;;;;;;;24.40;12.63;;;;;;;3.86;56.53;143213.78;1834866;77;22134;-58
2021/10/25 21:48:52;;;;;;;30.40;14.55;;;;;;;3.86;56.58;143213.78;1834987;77;22562;-59
2021/10/25 21:51:27;;;;;;;28.75;15.63;;;;;;;3.84;56.56;143208.78;1819340;77;27992;-58
2021/10/25 21:54:22;;;;;;;28.60;13.93;;;;;;;3.87;56.47;143216.31;1834916;77;22635;-58
2021/10/25 21:56:56;;;;;;;28.83;14.03;;;;;;;3.84;56.50;143208.78;1834994;77;22645;-56
2021/10/25 21:59:31;;;;;;;32.15;14.85;;;;;;;3.79;56.58;143196.31;1834906;77;22538;-59
2021/10/25 22:02:07;;;;;;;30.75;14.75;;;;;;;3.79;56.57;143196.31;1853503;77;22167;-56
2021/10/25 22:04:42;;;;;;;30.90;14.98;;;;;;;3.77;56.54;143191.36;1834867;77;22128;-57
2021/10/25 22:07:18;;;;;;;28.80;14.30;;;;;;;3.76;56.61;143188.84;1834731;77;22159;-57
2021/10/25 22:10:13;;;;;;;27.02;13.93;;;;;;;3.74;56.64;143183.84;1834943;77;22578;-56
2021/10/25 22:12:48;;;;;;;29.35;14.83;;;;;;;3.72;56.65;143180.13;1853485;77;22557;-61
2021/10/25 22:15:25;;;;;;;31.40;15.68;;;;;;;3.70;56.68;143176.38;1853505;77;22127;-60
2021/10/25 22:18:00;;;;;;;26.35;14.58;;;;;;;3.70;56.75;143176.38;1834929;77;22568;-57
2021/10/25 22:20:55;;;;;;;33.98;15.08;;;;;;;3.68;56.79;143171.37;1834931;77;22136;-58
2021/10/25 22:23:30;;;;;;;37.20;16.35;;;;;;;3.64;56.81;143161.42;1853525;77;22574;-56
2021/10/25 22:26:24;;;;;;;28.95;14.18;;;;;;;3.63;56.93;143158.91;1834986;77;22179;-58
2021/10/25 22:29:17;;;;;;;36.68;16.23;;;;;;;3.64;57.02;143160.19;1853448;77;22562;-56
2021/10/25 22:31:53;;;;;;;30.23;14.90;;;;;;;3.60;57.06;143151.44;1834837;77;22267;-58
2021/10/25 22:34:35;;;;;;;36.17;15.25;;;;;;;3.60;57.10;143150.19;1853660;77;22651;-57
2021/10/25 22:37:11;;;;;;;38.80;16.37;;;;;;;3.57;57.11;143143.95;1834964;77;22128;-56
2021/10/25 22:39:46;;;;;;;28.40;15.63;;;;;;;3.56;57.13;143141.48;1848177;77;20213;-58
2021/10/25 22:42:21;;;;;;;46.92;15.65;;;;;;;3.55;57.18;143138.97;1834937;77;22164;-57
2021/10/25 22:44:56;;;;;;;40.45;17.48;;;;;;;3.55;57.18;143138.97;1834838;77;22137;-54
2021/10/25 22:47:31;;;;;;;31.65;15.05;;;;;;;3.54;57.17;143135.25;1834950;77;22133;-57
2021/10/25 22:50:07;;;;;;;39.58;17.20;;;;;;;3.53;57.20;143133.97;1834953;77;22132;-55
2021/10/25 22:52:44;;;;;;;37.98;16.82;;;;;;;3.53;57.23;143133.97;1834872;77;22168;-54
2021/10/25 22:55:26;;;;;;;32.03;16.87;;;;;;;3.51;57.22;143129.02;1853465;77;22238;-58
2021/10/25 22:58:01;;;;;;;37.98;17.82;;;;;;;3.49;57.27;143124.02;1834971;77;22137;-58
2021/10/25 23:00:36;;;;;;;33.10;16.02;;;;;;;3.49;57.35;143124.02;1853498;77;22131;-57
2021/10/25 23:03:11;;;;;;;44.90;18.98;;;;;;;3.47;57.41;143119.03;1834919;77;22198;-57
2021/10/25 23:05:47;;;;;;;37.88;18.23;;;;;;;3.45;57.46;143114.03;1834817;77;22163;-54
2021/10/25 23:08:22;;;;;;;37.80;17.42;;;;;;;3.41;57.62;143104.03;1834863;77;22165;-55
2021/10/25 23:10:57;;;;;;;33.65;15.93;;;;;;;3.37;57.79;143095.33;1834912;77;22215;-59
2021/10/25 23:13:32;;;;;;;40.63;18.73;;;;;;;3.33;58.00;143084.09;1834973;77;22129;-60
2021/10/25 23:16:08;;;;;;;40.12;17.90;;;;;;;3.29;58.04;143075.39;1853514;77;22127;-58
2021/10/25 23:18:43;;;;;;;37.05;18.95;;;;;;;3.29;58.22;143074.16;1819319;77;28505;-59
2021/10/25 23:21:18;;;;;;;35.65;18.65;;;;;;;3.32;58.28;143081.63;1834944;77;22547;-59
2021/10/25 23:23:53;;;;;;;36.60;16.05;;;;;;;3.26;58.52;143069.16;1835021;77;22619;-57
2021/10/25 23:26:28;;;;;;;33.65;17.00;;;;;;;3.22;58.71;143057.94;1834932;77;22582;-59
2021/10/25 23:29:03;;;;;;;36.53;16.77;;;;;;;3.18;58.86;143049.22;1843352;77;22139;-61
2021/10/25 23:31:38;;;;;;;38.48;17.32;;;;;;;3.16;59.07;143044.22;1834968;77;22547;-57
2021/10/25 23:34:14;;;;;;;35.73;19.00;;;;;;;3.13;59.21;143036.75;1819344;77;28426;-55
2021/10/25 23:36:53;;;;;;;32.98;16.40;;;;;;;3.17;59.29;143046.70;1834950;77;22133;-56
2021/10/25 23:39:28;;;;;;;31.87;16.80;;;;;;;3.17;59.33;143046.70;1834883;77;22124;-55
2021/10/25 23:42:23;;;;;;;33.73;17.42;;;;;;;3.16;59.50;143044.22;1834688;77;22133;-56
2021/10/25 23:44:58;;;;;;;36.05;16.40;;;;;;;3.14;59.65;143039.23;1834948;77;22140;-58
2021/10/25 23:47:34;;;;;;;36.15;17.12;;;;;;;3.14;59.79;143039.23;1853399;77;22263;-57
2021/10/25 23:50:09;;;;;;;36.35;16.77;;;;;;;3.11;59.87;143031.77;1834918;77;22132;-59
2021/10/25 23:53:04;;;;;;;32.53;16.42;;;;;;;3.09;60.04;143026.78;1834915;77;22130;-58
2021/10/25 23:55:39;;;;;;;33.78;19.60;;;;;;;3.08;60.19;143024.30;1837759;77;28012;-58
2021/10/25 23:58:14;;;;;;;31.82;16.20;;;;;;;3.13;60.16;143036.75;1853455;77;22131;-59
